Time;durP1;ratioP1;P1;durP2;ratioP2;P2;SDS_P1;SDS_P2;PMS_P1;PMS_P2;Temp;Humidity;BMP_temperature;BMP_pressure;BME280_temperature;BME280_humidity;BME280_pressure;Samples;Min_cycle;Max_cycle;Signal;HPM_P1;HPM_P2
2022/05/14 00:01:04;;;;;;;0.45;0.45;;;12.60;99.90;;;;;;5012045;28;20037;-85
2022/05/14 00:03:31;;;;;;;3.83;3.03;;;12.50;99.90;;;;;;5009971;28;20045;-85
2022/05/14 00:06:06;;;;;;;0.20;0.20;;;12.50;99.90;;;;;;5010302;28;20124;-85
2022/05/14 00:08:32;;;;;;;2.75;0.95;;;12.50;99.90;;;;;;5011138;28;20038;-82
2022/05/14 00:13:44;;;;;;;0.22;0.22;;;12.50;99.90;;;;;;5008207;28;20069;-83
2022/05/14 00:16:11;;;;;;;0.10;0.10;;;12.50;99.90;;;;;;4993744;28;20090;-83
2022/05/14 00:18:38;;;;;;;1.15;1.08;;;12.50;99.90;;;;;;4993258;28;20046;-82
2022/05/14 00:21:04;;;;;;;0.45;0.45;;;12.40;99.90;;;;;;4991726;28;20083;-83
2022/05/14 00:23:29;;;;;;;0.10;0.10;;;12.40;99.90;;;;;;4993555;28;20439;-82
2022/05/14 00:25:55;;;;;;;0.38;0.38;;;12.30;99.90;;;;;;4992914;28;20063;-84
2022/05/14 00:28:22;;;;;;;0.13;0.13;;;12.30;99.90;;;;;;5014822;28;20443;-85
2022/05/14 00:30:48;;;;;;;0.00;0.00;;;12.30;99.90;;;;;;4997895;28;20037;-85
2022/05/14 00:33:14;;;;;;;0.03;0.03;;;12.30;99.90;;;;;;4999018;28;20369;-84
2022/05/14 00:35:40;;;;;;;0.35;0.32;;;12.20;99.90;;;;;;5002530;28;20087;-85
2022/05/14 00:38:08;;;;;;;0.40;0.40;;;12.20;99.90;;;;;;4995583;28;20580;-85
2022/05/14 00:40:47;;;;;;;4.07;2.28;;;12.20;99.90;;;;;;4992871;28;20094;-85
2022/05/14 00:43:15;;;;;;;0.17;0.17;;;12.10;99.90;;;;;;5011992;28;20056;-83
2022/05/14 00:45:55;;;;;;;0.05;0.05;;;12.10;99.90;;;;;;4988534;28;20715;-82
2022/05/14 00:48:22;;;;;;;0.00;0.00;;;12.00;99.90;;;;;;5005086;28;20042;-82
2022/05/14 00:50:52;;;;;;;0.00;0.00;;;12.00;99.90;;;;;;5007785;28;20038;-83
2022/05/14 00:53:30;;;;;;;0.65;0.20;;;12.00;99.90;;;;;;5021960;28;20033;-83
2022/05/14 00:55:58;;;;;;;0.95;0.43;;;11.90;99.90;;;;;;4996771;28;20088;-83
2022/05/14 00:58:37;;;;;;;0.15;0.15;;;11.90;99.90;;;;;;4991672;28;20045;-83
2022/05/14 01:01:03;;;;;;;5.85;0.47;;;11.90;99.90;;;;;;4989207;28;20041;-80
2022/05/14 01:03:29;;;;;;;0.63;0.63;;;11.90;99.90;;;;;;5007908;28;21128;-79
2022/05/14 01:05:59;;;;;;;0.52;0.52;;;11.90;99.90;;;;;;4990849;28;20045;-80
2022/05/14 01:08:24;;;;;;;0.10;0.10;;;11.90;99.90;;;;;;5004239;28;20045;-80
2022/05/14 01:10:52;;;;;;;0.30;0.30;;;11.90;99.90;;;;;;5020045;28;20044;-80
2022/05/14 01:13:18;;;;;;;0.20;0.20;;;11.90;99.90;;;;;;5003817;28;20037;-80
2022/05/14 01:15:55;;;;;;;0.17;0.17;;;12.00;99.90;;;;;;5008327;28;20044;-79
2022/05/14 01:18:23;;;;;;;0.05;0.05;;;12.10;99.90;;;;;;5008076;28;20037;-79
2022/05/14 01:20:56;;;;;;;0.28;0.28;;;12.00;99.90;;;;;;4991364;28;20048;-80
2022/05/14 01:26:29;;;;;;;0.28;0.28;;;11.90;99.90;;;;;;5006867;28;20041;-79
2022/05/14 01:29:08;;;;;;;0.10;0.10;;;11.90;99.90;;;;;;5008605;28;20049;-80
2022/05/14 01:31:35;;;;;;;0.10;0.10;;;11.90;99.90;;;;;;5005038;28;20041;-79
2022/05/14 01:34:08;;;;;;;0.20;0.20;;;11.90;99.90;;;;;;5014039;28;20083;-79
2022/05/14 01:36:36;;;;;;;0.00;0.00;;;11.80;99.90;;;;;;5003065;28;20042;-79
2022/05/14 01:39:03;;;;;;;0.03;0.03;;;11.70;99.90;;;;;;4989102;28;20041;-79
2022/05/14 01:41:29;;;;;;;0.03;0.03;;;11.70;99.90;;;;;;4972971;28;20041;-79
2022/05/14 01:43:54;;;;;;;0.32;0.32;;;11.60;99.90;;;;;;5003607;28;20048;-79
2022/05/14 01:46:20;;;;;;;0.25;0.25;;;11.60;99.90;;;;;;4989677;28;20129;-79
2022/05/14 01:48:47;;;;;;;0.03;0.03;;;11.50;99.90;;;;;;5006991;28;20458;-85
2022/05/14 01:51:14;;;;;;;0.10;0.10;;;11.50;99.90;;;;;;5005628;28;20494;-84
2022/05/14 01:53:40;;;;;;;0.13;0.13;;;11.40;99.90;;;;;;4992114;28;20128;-85
2022/05/14 01:56:06;;;;;;;1.08;0.28;;;11.40;99.90;;;;;;4993915;28;20694;-85
2022/05/14 01:58:38;;;;;;;1.00;0.40;;;11.30;99.90;;;;;;4988782;28;20052;-85
2022/05/14 02:01:23;;;;;;;0.10;0.10;;;11.30;99.90;;;;;;4990068;28;20072;-85
2022/05/14 02:04:09;;;;;;;0.03;0.03;;;11.30;99.90;;;;;;5023744;28;20077;-85
2022/05/14 02:06:36;;;;;;;0.20;0.20;;;11.20;99.90;;;;;;5007764;28;20041;-79
2022/05/14 02:09:03;;;;;;;0.57;0.57;;;11.20;99.90;;;;;;5005245;28;20037;-78
2022/05/14 02:11:29;;;;;;;0.10;0.10;;;11.20;99.90;;;;;;5003309;28;20045;-79
2022/05/14 02:13:55;;;;;;;0.00;0.00;;;11.20;99.90;;;;;;5003163;28;20040;-78
2022/05/14 02:16:21;;;;;;;0.20;0.20;;;11.10;99.90;;;;;;5005424;28;20045;-78
2022/05/14 02:18:47;;;;;;;0.75;0.70;;;11.10;99.90;;;;;;4991359;28;20056;-78
2022/05/14 02:21:14;;;;;;;0.22;0.22;;;11.10;99.90;;;;;;4991571;28;20041;-78
2022/05/14 02:23:40;;;;;;;1.13;1.10;;;11.10;99.90;;;;;;5008566;28;20057;-85
2022/05/14 02:26:10;;;;;;;1.85;1.05;;;11.10;99.90;;;;;;4989401;28;20492;-85
2022/05/14 02:28:36;;;;;;;0.47;0.47;;;11.10;99.90;;;;;;5006676;28;20400;-85
2022/05/14 02:31:02;;;;;;;0.00;0.00;;;11.00;99.90;;;;;;5004685;28;20128;-85
2022/05/14 02:33:28;;;;;;;0.20;0.20;;;11.00;99.90;;;;;;4990478;28;20179;-85
2022/05/14 02:35:54;;;;;;;0.00;0.00;;;11.00;99.90;;;;;;5007396;28;20052;-85
2022/05/14 02:38:20;;;;;;;0.90;0.68;;;10.90;99.90;;;;;;5005686;28;20052;-84
2022/05/14 02:40:46;;;;;;;0.40;0.40;;;11.00;99.90;;;;;;5001538;28;20045;-85
2022/05/14 02:43:12;;;;;;;1.77;1.35;;;10.90;99.90;;;;;;5006116;28;20048;-84
2022/05/14 02:45:38;;;;;;;0.05;0.05;;;10.90;99.90;;;;;;4995745;28;20403;-84
2022/05/14 02:48:04;;;;;;;0.57;0.55;;;10.90;99.90;;;;;;4994317;28;20053;-85
2022/05/14 02:50:30;;;;;;;0.10;0.10;;;10.90;99.90;;;;;;5015391;28;20080;-84
2022/05/14 02:52:56;;;;;;;0.30;0.30;;;10.80;99.90;;;;;;5010931;28;20365;-85
2022/05/14 02:55:23;;;;;;;1.02;0.80;;;10.80;99.90;;;;;;5006210;28;20072;-79
2022/05/14 02:57:48;;;;;;;1.45;1.38;;;10.80;99.90;;;;;;5004662;28;20052;-78
2022/05/14 03:00:17;;;;;;;0.55;0.50;;;10.80;99.90;;;;;;4999610;28;20049;-78
2022/05/14 03:02:44;;;;;;;0.10;0.10;;;10.90;99.90;;;;;;5006379;28;21575;-78
2022/05/14 03:05:12;;;;;;;0.70;0.43;;;10.80;99.90;;;;;;5004850;28;20060;-79
2022/05/14 03:07:39;;;;;;;0.40;0.40;;;10.80;99.90;;;;;;5006474;28;20057;-78
2022/05/14 03:10:05;;;;;;;0.35;0.35;;;10.80;99.90;;;;;;5004416;28;20377;-78
2022/05/14 03:12:30;;;;;;;1.77;0.57;;;10.80;99.90;;;;;;4992171;28;20445;-79
2022/05/14 03:14:56;;;;;;;1.02;0.55;;;10.70;99.90;;;;;;5004626;28;20038;-79
2022/05/14 03:17:22;;;;;;;0.47;0.47;;;10.70;99.90;;;;;;5004718;28;20048;-79
2022/05/14 03:19:49;;;;;;;0.10;0.10;;;10.70;99.90;;;;;;4991540;28;20053;-79
2022/05/14 03:22:18;;;;;;;0.45;0.45;;;10.60;99.90;;;;;;5004872;28;20045;-79
2022/05/14 03:24:44;;;;;;;0.25;0.25;;;10.60;99.90;;;;;;5006458;28;20045;-79
2022/05/14 03:27:12;;;;;;;0.85;0.85;;;10.60;99.90;;;;;;4989927;28;20085;-79
2022/05/14 03:29:39;;;;;;;0.45;0.10;;;10.50;99.90;;;;;;5008207;28;20052;-82
2022/05/14 03:32:05;;;;;;;0.15;0.15;;;10.60;99.90;;;;;;5007534;28;20125;-82
2022/05/14 03:34:32;;;;;;;0.00;0.00;;;10.50;99.90;;;;;;5008362;28;20496;-82
2022/05/14 03:36:58;;;;;;;0.17;0.17;;;10.50;99.90;;;;;;5011125;28;20120;-82
2022/05/14 03:39:24;;;;;;;0.00;0.00;;;10.40;99.90;;;;;;5012816;28;20041;-82
2022/05/14 03:41:50;;;;;;;0.10;0.10;;;10.50;99.90;;;;;;5008406;28;20037;-82
2022/05/14 03:44:17;;;;;;;0.00;0.00;;;10.40;99.90;;;;;;4992812;28;20045;-82
2022/05/14 03:46:43;;;;;;;0.17;0.17;;;10.40;99.90;;;;;;4995383;28;20037;-84
2022/05/14 03:49:08;;;;;;;4.22;1.08;;;10.40;99.90;;;;;;4979438;28;20052;-85
2022/05/14 03:51:34;;;;;;;0.00;0.00;;;10.40;99.90;;;;;;4998859;28;20037;-84
2022/05/14 03:54:00;;;;;;;2.42;2.28;;;10.40;99.90;;;;;;5000783;28;20045;-84
2022/05/14 03:56:26;;;;;;;0.28;0.28;;;10.40;99.90;;;;;;5013798;28;20463;-84
2022/05/14 03:58:52;;;;;;;0.10;0.10;;;10.40;99.90;;;;;;4997825;28;20045;-84
2022/05/14 04:01:18;;;;;;;0.00;0.00;;;10.40;99.90;;;;;;5014156;28;20053;-84
2022/05/14 04:03:45;;;;;;;0.52;0.43;;;10.50;99.90;;;;;;5008959;28;20691;-82
2022/05/14 04:06:11;;;;;;;0.10;0.10;;;10.40;99.90;;;;;;5009606;28;20504;-82
2022/05/14 04:08:37;;;;;;;0.28;0.28;;;10.50;99.90;;;;;;4994462;28;20049;-82
2022/05/14 04:11:04;;;;;;;0.32;0.32;;;10.50;99.90;;;;;;5008507;28;20041;-83
2022/05/14 04:13:30;;;;;;;6.40;0.43;;;10.60;99.90;;;;;;4989315;28;20135;-82
2022/05/14 04:15:56;;;;;;;0.10;0.10;;;10.60;99.90;;;;;;5008196;28;20048;-82
2022/05/14 04:18:24;;;;;;;4.03;0.55;;;10.60;99.90;;;;;;5008264;28;20033;-82
2022/05/14 04:20:55;;;;;;;0.05;0.03;;;10.60;99.90;;;;;;4996043;28;20038;-84
2022/05/14 04:23:22;;;;;;;0.00;0.00;;;10.60;99.90;;;;;;4997464;28;20467;-84
2022/05/14 04:25:50;;;;;;;0.00;0.00;;;10.60;99.90;;;;;;5009570;28;20049;-85
2022/05/14 04:28:16;;;;;;;0.00;0.00;;;10.60;99.90;;;;;;4998890;28;20037;-84
2022/05/14 04:30:41;;;;;;;0.10;0.10;;;10.60;99.90;;;;;;5012763;28;20033;-84
2022/05/14 04:33:07;;;;;;;1.85;1.75;;;10.60;99.90;;;;;;5013631;28;20033;-84
2022/05/14 04:35:33;;;;;;;0.00;0.00;;;10.60;99.90;;;;;;4996305;28;20387;-78
2022/05/14 04:37:59;;;;;;;0.20;0.20;;;10.70;99.90;;;;;;5008940;28;20056;-78
2022/05/14 04:40:24;;;;;;;0.25;0.25;;;10.70;99.90;;;;;;5007253;28;20092;-78
2022/05/14 04:42:50;;;;;;;0.00;0.00;;;10.70;99.90;;;;;;5005675;28;20498;-78
2022/05/14 04:45:16;;;;;;;0.10;0.10;;;10.80;99.90;;;;;;5005824;28;20045;-78
2022/05/14 04:47:42;;;;;;;0.00;0.00;;;10.80;99.90;;;;;;4991038;28;20139;-78
2022/05/14 04:50:10;;;;;;;2.83;1.95;;;10.90;99.90;;;;;;4978442;23;20069;-78
2022/05/14 04:52:35;;;;;;;0.10;0.10;;;10.90;99.90;;;;;;4965628;28;20034;-79
2022/05/14 04:55:01;;;;;;;2.28;1.45;;;11.00;99.90;;;;;;4969687;28;20502;-80
2022/05/14 04:57:27;;;;;;;0.08;0.05;;;11.10;99.90;;;;;;4946000;28;20057;-79
2022/05/14 04:59:53;;;;;;;0.10;0.10;;;11.20;99.90;;;;;;4970337;28;20034;-80
2022/05/14 05:05:04;;;;;;;0.63;0.50;;;11.40;99.90;;;;;;4967411;28;20049;-80
2022/05/14 05:07:30;;;;;;;0.32;0.32;;;11.50;99.90;;;;;;4951262;28;20045;-80
2022/05/14 05:09:55;;;;;;;0.40;0.20;;;11.60;99.90;;;;;;4967010;28;20038;-82
2022/05/14 05:12:21;;;;;;;2.92;2.17;;;11.60;99.90;;;;;;4954049;28;20065;-82
2022/05/14 05:14:47;;;;;;;0.35;0.30;;;11.70;99.90;;;;;;4968562;28;21746;-82
2022/05/14 05:17:13;;;;;;;1.52;1.08;;;11.90;99.90;;;;;;4968781;28;20481;-82
2022/05/14 05:19:38;;;;;;;0.13;0.13;;;12.20;99.90;;;;;;4969192;28;20137;-82
2022/05/14 05:22:04;;;;;;;1.45;0.82;;;12.50;99.90;;;;;;4969310;28;20405;-82
2022/05/14 05:24:32;;;;;;;0.17;0.17;;;12.80;99.90;;;;;;4969166;28;20054;-82
2022/05/14 05:26:58;;;;;;;0.35;0.32;;;13.00;99.90;;;;;;4951767;28;20492;-79
2022/05/14 05:29:24;;;;;;;0.20;0.20;;;13.10;99.90;;;;;;4963134;28;20070;-80
2022/05/14 05:31:50;;;;;;;11.18;0.65;;;13.40;99.90;;;;;;4957342;28;20035;-80
2022/05/14 05:34:15;;;;;;;0.45;0.30;;;13.70;99.90;;;;;;4964937;28;20039;-79
2022/05/14 05:36:41;;;;;;;0.30;0.30;;;13.70;99.90;;;;;;4968181;28;20045;-80
2022/05/14 05:39:07;;;;;;;3.13;0.90;;;14.60;99.90;;;;;;4968619;28;20264;-80
2022/05/14 05:41:33;;;;;;;0.13;0.13;;;14.90;99.90;;;;;;4962876;28;20158;-80
2022/05/14 05:43:58;;;;;;;6.55;0.68;;;15.20;99.90;;;;;;4967898;28;20080;-80
2022/05/14 05:46:24;;;;;;;0.05;0.05;;;15.50;99.90;;;;;;4952485;28;20049;-80
2022/05/14 05:48:50;;;;;;;0.17;0.17;;;15.80;99.90;;;;;;4962385;28;20092;-80
2022/05/14 05:51:16;;;;;;;0.00;0.00;;;16.00;99.90;;;;;;4966843;28;20101;-80
2022/05/14 05:59:11;;;;;;;0.40;0.40;;;16.20;99.90;;;;;;4956793;28;20042;-82
2022/05/14 06:01:37;;;;;;;1.40;0.85;;;16.00;99.90;;;;;;4964035;28;20567;-84
2022/05/14 06:04:03;;;;;;;0.20;0.20;;;15.60;99.90;;;;;;4961436;28;20088;-84
2022/05/14 06:06:29;;;;;;;0.52;0.47;;;15.60;99.90;;;;;;4964382;28;20459;-84
2022/05/14 06:08:54;;;;;;;1.02;0.95;;;15.70;99.90;;;;;;4947828;28;20045;-84
2022/05/14 06:11:21;;;;;;;0.45;0.45;;;16.10;99.90;;;;;;4932344;28;20058;-84
2022/05/14 06:13:46;;;;;;;0.47;0.35;;;16.60;99.90;;;;;;4948741;28;20439;-84
2022/05/14 06:16:15;;;;;;;0.57;0.25;;;16.80;99.90;;;;;;4968729;28;20546;-80
2022/05/14 06:18:44;;;;;;;0.03;0.03;;;17.00;99.90;;;;;;4982506;28;20057;-80
2022/05/14 06:21:11;;;;;;;0.85;0.40;;;17.50;99.90;;;;;;4978337;28;20042;-80
2022/05/14 06:23:37;;;;;;;0.10;0.10;;;18.10;99.90;;;;;;4965404;28;20385;-80
2022/05/14 06:26:03;;;;;;;0.80;0.43;;;18.50;99.90;;;;;;4970639;28;20073;-81
2022/05/14 06:28:29;;;;;;;3.85;0.70;;;18.70;99.90;;;;;;4925086;28;20126;-81
2022/05/14 06:30:56;;;;;;;0.75;0.57;;;18.70;99.90;;;;;;4971217;28;20097;-80
2022/05/14 06:33:22;;;;;;;0.45;0.45;;;19.20;99.90;;;;;;4979290;28;20121;-79
2022/05/14 06:35:48;;;;;;;0.70;0.63;;;19.40;99.90;;;;;;4967567;28;20039;-80
2022/05/14 06:38:14;;;;;;;0.60;0.60;;;19.40;99.90;;;;;;4966904;28;20046;-79
2022/05/14 06:40:41;;;;;;;0.00;0.00;;;19.60;99.90;;;;;;4966757;28;20038;-80
2022/05/14 06:43:07;;;;;;;0.28;0.28;;;19.80;99.90;;;;;;4953263;28;20051;-80
2022/05/14 06:45:33;;;;;;;0.65;0.65;;;19.90;99.90;;;;;;4967186;28;20047;-80
2022/05/14 06:47:59;;;;;;;0.77;0.77;;;20.10;99.90;;;;;;4966728;28;20396;-80
2022/05/14 06:50:31;;;;;;;1.55;0.85;;;20.10;99.90;;;;;;4952464;28;20082;-80
2022/05/14 06:53:01;;;;;;;4.38;0.52;;;19.90;99.90;;;;;;4967740;28;20049;-80
2022/05/14 06:55:32;;;;;;;0.63;0.63;;;20.00;99.90;;;;;;4967119;28;20125;-80
2022/05/14 06:57:58;;;;;;;0.60;0.60;;;20.30;99.90;;;;;;4954933;28;20386;-80
2022/05/14 07:00:24;;;;;;;0.52;0.35;;;20.20;99.90;;;;;;4965806;28;20042;-80
2022/05/14 07:02:51;;;;;;;0.10;0.10;;;20.70;99.90;;;;;;4948319;28;20068;-79
2022/05/14 07:08:02;;;;;;;0.52;0.30;;;21.70;97.40;;;;;;4963744;28;20042;-82
2022/05/14 07:10:28;;;;;;;0.90;0.85;;;21.90;96.10;;;;;;4964105;28;20053;-83
2022/05/14 07:12:56;;;;;;;0.30;0.30;;;22.30;95.40;;;;;;4963554;28;20427;-83
2022/05/14 07:15:22;;;;;;;1.95;1.35;;;21.70;94.30;;;;;;4985242;28;20082;-83
2022/05/14 07:17:48;;;;;;;1.52;0.93;;;21.30;94.40;;;;;;4969333;28;20469;-83
2022/05/14 07:20:13;;;;;;;0.35;0.35;;;22.00;96.10;;;;;;4970161;28;20038;-83
2022/05/14 07:22:39;;;;;;;1.95;1.85;;;22.30;93.80;;;;;;4968569;28;20053;-85
2022/05/14 07:25:05;;;;;;;3.53;1.02;;;22.40;93.50;;;;;;4951581;28;20523;-85
2022/05/14 07:27:31;;;;;;;1.55;0.63;;;22.50;93.60;;;;;;4953026;28;20511;-85
2022/05/14 07:29:57;;;;;;;0.73;0.73;;;22.70;94.50;;;;;;4953634;28;20054;-87
2022/05/14 07:32:22;;;;;;;0.10;0.10;;;22.80;92.90;;;;;;4950089;28;20046;-86
2022/05/14 07:34:48;;;;;;;0.35;0.15;;;22.30;90.90;;;;;;4985758;28;20447;-86
2022/05/14 07:37:27;;;;;;;0.65;0.50;;;22.20;91.40;;;;;;4936199;28;20069;-87
2022/05/14 07:39:57;;;;;;;0.70;0.55;;;22.80;93.00;;;;;;4969161;28;20038;-82
2022/05/14 07:42:31;;;;;;;0.10;0.10;;;23.40;90.40;;;;;;4967661;28;20065;-82
2022/05/14 07:45:00;;;;;;;1.10;0.55;;;23.60;91.10;;;;;;4967856;28;20093;-83
2022/05/14 07:47:27;;;;;;;1.17;0.77;;;24.10;90.20;;;;;;4957850;28;20124;-82
2022/05/14 07:49:52;;;;;;;0.80;0.80;;;24.40;85.00;;;;;;4965974;28;20061;-82
2022/05/14 07:52:20;;;;;;;0.50;0.50;;;24.90;85.90;;;;;;4966541;28;20052;-81
2022/05/14 07:54:46;;;;;;;0.60;0.38;;;25.00;87.50;;;;;;4953442;28;20041;-81
2022/05/14 07:57:12;;;;;;;0.10;0.10;;;25.00;84.90;;;;;;4982885;28;20492;-85
2022/05/14 07:59:38;;;;;;;0.20;0.20;;;25.50;79.80;;;;;;4982579;28;20443;-85
2022/05/14 08:02:06;;;;;;;1.33;0.38;;;25.90;82.20;;;;;;4953006;28;20038;-85
2022/05/14 08:04:33;;;;;;;0.32;0.32;;;25.10;80.60;;;;;;4951264;28;20050;-85
2022/05/14 08:06:58;;;;;;;0.43;0.43;;;24.20;82.50;;;;;;4966686;28;20052;-84
2022/05/14 08:09:24;;;;;;;0.73;0.73;;;25.00;78.40;;;;;;4934289;28;20046;-85
2022/05/14 08:11:52;;;;;;;0.22;0.13;;;24.90;76.90;;;;;;4948900;28;20088;-81
2022/05/14 08:14:19;;;;;;;0.32;0.32;;;24.70;75.80;;;;;;4981660;28;20078;-81
2022/05/14 08:16:44;;;;;;;1.13;0.52;;;24.50;78.30;;;;;;4964442;28;20101;-82
2022/05/14 08:19:10;;;;;;;0.43;0.43;;;25.50;79.90;;;;;;4962750;28;20076;-82
2022/05/14 08:24:34;;;;;;;0.35;0.30;;;26.30;73.10;;;;;;4978805;28;20132;-81
2022/05/14 08:27:06;;;;;;;0.50;0.50;;;26.20;73.60;;;;;;4979941;28;20825;-81
2022/05/14 08:29:32;;;;;;;1.27;1.02;;;26.70;73.00;;;;;;4965897;28;20038;-81
2022/05/14 08:31:58;;;;;;;0.47;0.47;;;26.80;75.40;;;;;;4955925;28;20053;-81
2022/05/14 08:34:24;;;;;;;0.90;0.90;;;27.30;71.10;;;;;;4948223;28;20042;-82
2022/05/14 08:36:50;;;;;;;0.10;0.10;;;27.80;70.40;;;;;;4965640;28;20085;-82
2022/05/14 08:39:16;;;;;;;0.20;0.20;;;27.60;68.90;;;;;;4946320;28;20503;-81
2022/05/14 08:41:47;;;;;;;3.70;0.95;;;26.70;67.60;;;;;;4983499;28;20085;-81
2022/05/14 08:44:17;;;;;;;0.30;0.20;;;26.50;70.00;;;;;;4966064;28;20046;-82
2022/05/14 08:46:45;;;;;;;0.30;0.30;;;27.20;70.80;;;;;;4950883;28;20399;-83
2022/05/14 08:49:20;;;;;;;0.85;0.60;;;26.60;67.40;;;;;;4946320;28;20065;-84
2022/05/14 08:51:49;;;;;;;0.80;0.60;;;26.60;70.30;;;;;;4963594;28;20050;-84
2022/05/14 08:54:16;;;;;;;0.70;0.70;;;26.10;71.00;;;;;;4963389;28;20046;-83
2022/05/14 08:57:03;;;;;;;0.68;0.63;;;26.00;69.00;;;;;;4963951;28;20057;-84
2022/05/14 08:59:49;;;;;;;0.43;0.28;;;26.60;72.00;;;;;;4974637;28;20050;-84
2022/05/14 09:02:19;;;;;;;0.20;0.20;;;26.90;69.50;;;;;;4974181;28;20047;-82
2022/05/14 09:04:45;;;;;;;1.65;1.42;;;25.80;69.50;;;;;;4969459;28;20049;-81
2022/05/14 09:07:11;;;;;;;1.05;1.00;;;24.40;73.30;;;;;;4956577;28;20050;-81
2022/05/14 09:09:48;;;;;;;1.05;1.05;;;24.10;71.30;;;;;;4961778;28;20043;-82
2022/05/14 09:12:18;;;;;;;0.93;0.90;;;24.50;73.70;;;;;;4945526;28;20101;-81
2022/05/14 09:14:44;;;;;;;0.17;0.17;;;24.80;72.90;;;;;;4963216;28;20034;-81
2022/05/14 09:17:21;;;;;;;2.90;1.77;;;24.30;70.00;;;;;;4943161;28;20057;-81
2022/05/14 09:19:50;;;;;;;0.45;0.45;;;23.90;73.40;;;;;;4947783;28;20042;-79
2022/05/14 09:22:22;;;;;;;0.43;0.20;;;23.10;75.30;;;;;;4962345;28;20043;-79
2022/05/14 09:25:14;;;;;;;0.25;0.25;;;23.00;77.30;;;;;;4962249;28;20058;-79
2022/05/14 09:28:06;;;;;;;2.53;1.85;;;23.90;75.80;;;;;;4974913;28;20092;-79
2022/05/14 09:30:36;;;;;;;0.30;0.30;;;24.90;72.50;;;;;;4960675;28;20061;-79
2022/05/14 09:33:04;;;;;;;1.73;0.47;;;25.70;72.40;;;;;;4964418;28;20073;-79
2022/05/14 09:35:33;;;;;;;0.85;0.85;;;25.50;67.60;;;;;;4961898;28;20046;-83
2022/05/14 09:38:10;;;;;;;0.32;0.32;;;25.20;69.30;;;;;;4962158;28;20051;-84
2022/05/14 09:40:37;;;;;;;5.82;0.52;;;26.10;70.80;;;;;;4963116;28;20543;-84
2022/05/14 09:43:16;;;;;;;0.32;0.32;;;27.10;67.10;;;;;;4977495;28;20516;-84
2022/05/14 09:45:55;;;;;;;0.57;0.57;;;27.30;68.10;;;;;;4960986;28;20493;-83
2022/05/14 09:48:29;;;;;;;0.10;0.10;;;27.00;66.10;;;;;;4961456;28;20495;-82
2022/05/14 09:51:00;;;;;;;1.90;1.00;;;26.70;65.70;;;;;;4979994;28;20046;-84
2022/05/14 09:53:40;;;;;;;1.45;0.98;;;26.10;68.90;;;;;;4967872;28;20034;-83
2022/05/14 09:56:33;;;;;;;0.45;0.43;;;25.80;67.60;;;;;;4962669;28;20460;-83
2022/05/14 09:59:23;;;;;;;0.35;0.35;;;25.20;65.90;;;;;;4979172;28;21502;-83
2022/05/14 10:02:00;;;;;;;0.20;0.20;;;24.40;69.30;;;;;;4964040;28;20042;-83
2022/05/14 10:04:56;;;;;;;0.85;0.85;;;24.60;68.60;;;;;;4979966;28;20414;-83
2022/05/14 10:07:47;;;;;;;0.57;0.57;;;24.80;70.20;;;;;;4965420;28;20042;-83
2022/05/14 10:10:42;;;;;;;2.13;0.57;;;24.90;70.90;;;;;;4963361;28;20046;-83
2022/05/14 10:13:27;;;;;;;0.47;0.47;;;24.80;66.50;;;;;;4939371;28;20080;-83
2022/05/14 10:16:03;;;;;;;0.40;0.40;;;25.20;68.10;;;;;;4952482;28;20048;-83
2022/05/14 10:18:59;;;;;;;1.20;0.90;;;25.10;69.50;;;;;;4983596;28;20045;-83
2022/05/14 10:21:45;;;;;;;0.73;0.73;;;25.00;69.50;;;;;;4967258;28;20129;-83
2022/05/14 10:27:44;;;;;;;2.90;0.30;;;25.90;68.40;;;;;;4963228;28;20050;-81
2022/05/14 10:30:46;;;;;;;0.38;0.38;;;25.60;69.10;;;;;;4964024;28;20046;-81
2022/05/14 10:33:24;;;;;;;1.45;1.38;;;26.70;64.00;;;;;;4964054;28;20176;-81
2022/05/14 10:36:08;;;;;;;0.10;0.10;;;26.60;63.70;;;;;;4965485;28;20141;-82
2022/05/14 10:38:43;;;;;;;1.52;1.42;;;27.70;64.20;;;;;;4965863;28;20092;-81
2022/05/14 10:41:09;;;;;;;2.20;0.95;;;26.00;63.40;;;;;;4964205;28;20054;-81
2022/05/14 10:44:08;;;;;;;0.15;0.15;;;25.60;66.30;;;;;;4981240;28;20041;-78
2022/05/14 10:46:36;;;;;;;1.98;1.80;;;24.30;67.00;;;;;;4969413;28;20060;-78
2022/05/14 10:49:22;;;;;;;0.00;0.00;;;23.50;70.70;;;;;;4964691;28;20054;-78
2022/05/14 10:51:51;;;;;;;1.45;1.13;;;24.10;68.70;;;;;;4966558;28;20038;-78
2022/05/14 10:54:21;;;;;;;0.57;0.40;;;24.10;68.70;;;;;;4976580;28;20038;-78
2022/05/14 10:57:03;;;;;;;0.20;0.20;;;24.30;67.90;;;;;;4976133;28;20061;-78
2022/05/14 10:59:41;;;;;;;2.97;2.60;;;24.80;69.90;;;;;;4963265;28;20524;-79
2022/05/14 11:02:25;;;;;;;0.40;0.40;;;25.70;67.80;;;;;;4979002;28;20057;-79
2022/05/14 11:04:52;;;;;;;1.98;1.65;;;26.60;66.40;;;;;;4974500;28;20045;-79
2022/05/14 11:07:37;;;;;;;2.40;1.20;;;27.00;68.20;;;;;;4978872;28;20092;-79
2022/05/14 11:10:32;;;;;;;0.38;0.38;;;27.70;63.70;;;;;;4969863;28;20480;-79
2022/05/14 11:13:24;;;;;;;6.13;0.65;;;27.30;63.40;;;;;;4969290;28;20097;-79
2022/05/14 11:16:07;;;;;;;0.35;0.35;;;27.20;63.30;;;;;;4967705;28;20045;-78
2022/05/14 11:18:50;;;;;;;1.75;0.68;;;26.00;62.60;;;;;;4968033;28;20042;-80
2022/05/14 11:21:18;;;;;;;0.47;0.47;;;26.00;64.50;;;;;;4966998;28;20481;-81
2022/05/14 11:23:56;;;;;;;0.13;0.13;;;25.70;65.90;;;;;;4980883;28;20113;-80
2022/05/14 11:26:22;;;;;;;0.95;0.40;;;25.40;64.90;;;;;;4968559;28;20038;-81
2022/05/14 11:29:11;;;;;;;1.08;0.63;;;24.50;65.60;;;;;;4955506;28;20084;-80
2022/05/14 11:31:42;;;;;;;1.10;0.93;;;24.10;66.70;;;;;;4972458;28;20034;-81
2022/05/14 11:34:18;;;;;;;1.27;1.17;;;23.50;66.70;;;;;;4971953;28;20077;-85
2022/05/14 11:36:51;;;;;;;2.15;0.85;;;23.10;71.10;;;;;;4968482;28;20125;-85
2022/05/14 11:39:20;;;;;;;0.03;0.03;;;24.10;69.20;;;;;;4987635;28;20062;-85
2022/05/14 11:41:46;;;;;;;4.10;1.92;;;25.40;64.10;;;;;;4970076;28;20515;-85
2022/05/14 11:44:12;;;;;;;0.05;0.03;;;25.20;63.80;;;;;;4969905;28;20681;-85
2022/05/14 11:46:43;;;;;;;0.45;0.45;;;24.90;65.40;;;;;;4982148;28;20044;-85
2022/05/14 11:49:44;;;;;;;0.22;0.22;;;24.90;65.80;;;;;;4964135;28;20055;-81
2022/05/14 11:52:28;;;;;;;0.00;0.00;;;24.30;65.40;;;;;;4939392;28;20057;-80
2022/05/14 11:55:18;;;;;;;0.00;0.00;;;23.90;66.90;;;;;;4961814;28;20073;-80
2022/05/14 11:57:49;;;;;;;1.27;1.17;;;23.80;68.00;;;;;;4964584;28;20170;-80
2022/05/14 12:00:16;;;;;;;1.13;0.40;;;23.30;68.40;;;;;;4963046;28;20081;-80
2022/05/14 12:02:56;;;;;;;0.00;0.00;;;23.80;68.90;;;;;;4960250;28;20528;-83
2022/05/14 12:05:33;;;;;;;0.95;0.90;;;25.20;68.70;;;;;;4966059;28;20050;-82
2022/05/14 12:08:30;;;;;;;1.02;1.02;;;25.50;64.80;;;;;;4961892;28;20560;-82
2022/05/14 12:10:59;;;;;;;0.63;0.47;;;26.10;65.30;;;;;;4948023;28;20417;-83
2022/05/14 12:13:42;;;;;;;0.40;0.40;;;24.80;66.10;;;;;;4962824;28;20086;-83
2022/05/14 12:16:09;;;;;;;0.20;0.20;;;24.30;67.40;;;;;;4964324;28;20077;-82
2022/05/14 12:18:44;;;;;;;0.63;0.63;;;24.30;67.10;;;;;;4978065;28;20127;-82
2022/05/14 12:21:11;;;;;;;1.67;0.98;;;23.70;67.60;;;;;;4948169;28;20051;-82
2022/05/14 12:23:41;;;;;;;0.30;0.30;;;23.50;67.20;;;;;;4964211;28;20439;-81
2022/05/14 12:26:29;;;;;;;0.15;0.15;;;23.30;68.60;;;;;;4963464;28;20038;-81
2022/05/14 12:28:57;;;;;;;0.22;0.22;;;23.70;70.00;;;;;;4946885;28;20507;-80
2022/05/14 12:34:18;;;;;;;2.72;2.45;;;23.40;67.60;;;;;;4965441;28;20034;-81
2022/05/14 12:36:53;;;;;;;0.43;0.43;;;23.10;68.80;;;;;;4947565;28;20054;-81
2022/05/14 12:39:29;;;;;;;0.00;0.00;;;22.70;67.90;;;;;;4979067;28;20078;-81
2022/05/14 12:41:56;;;;;;;;;;;22.30;69.40;;;;;;4943213;28;20050;-81
2022/05/14 12:44:29;;;;;;;0.82;0.82;;;22.40;70.10;;;;;;4964148;28;20041;-81
2022/05/14 12:46:58;;;;;;;1.08;0.82;;;22.90;72.90;;;;;;4963916;28;20574;-81
2022/05/14 12:49:30;;;;;;;0.38;0.38;;;23.10;72.10;;;;;;4963221;28;20110;-81
2022/05/14 12:51:58;;;;;;;4.03;0.50;;;23.30;69.20;;;;;;4965356;28;20043;-81
2022/05/14 12:54:31;;;;;;;0.25;0.25;;;23.00;70.00;;;;;;4961910;28;20034;-81
2022/05/14 12:57:02;;;;;;;0.70;0.65;;;22.50;70.80;;;;;;4977723;28;21624;-81
2022/05/14 12:59:27;;;;;;;0.70;0.45;;;22.40;71.00;;;;;;4963686;28;20038;-82
2022/05/14 13:02:07;;;;;;;7.57;2.15;;;22.50;71.40;;;;;;4931676;28;20568;-81
2022/05/14 13:04:49;;;;;;;0.40;0.38;;;22.80;71.50;;;;;;4945924;28;20038;-82
2022/05/14 13:07:15;;;;;;;0.45;0.45;;;22.40;70.90;;;;;;4978485;28;20057;-82
2022/05/14 13:09:42;;;;;;;1.55;1.42;;;22.40;71.60;;;;;;4963657;28;20042;-81
2022/05/14 13:12:20;;;;;;;0.75;0.75;;;22.80;71.10;;;;;;4964460;28;20074;-80
2022/05/14 13:14:59;;;;;;;0.30;0.30;;;23.00;71.50;;;;;;4943543;28;20153;-80
2022/05/14 13:17:36;;;;;;;0.75;0.25;;;23.30;70.60;;;;;;4964188;28;20038;-80
2022/05/14 13:20:06;;;;;;;1.05;0.13;;;23.80;69.10;;;;;;4963870;28;20134;-80
2022/05/14 13:22:35;;;;;;;0.20;0.20;;;23.90;71.50;;;;;;4980882;28;20059;-80
2022/05/14 13:25:23;;;;;;;0.20;0.20;;;24.10;69.50;;;;;;4960912;28;20097;-80
2022/05/14 13:27:49;;;;;;;0.17;0.17;;;24.20;69.30;;;;;;4978255;28;20055;-80
2022/05/14 13:30:17;;;;;;;1.17;0.65;;;24.00;69.90;;;;;;4947490;28;20046;-80